Time;durP1;ratioP1;P1;durP2;ratioP2;P2;SDS_P1;SDS_P2;PMS_P1;PMS_P2;Temp;Humidity;BMP_temperature;BMP_pressure;BME280_temperature;BME280_humidity;BME280_pressure;Samples;Min_cycle;Max_cycle;Signal;HPM_P1;HPM_P2
2022/06/07 00:01:40;;;;;;;0.23;0.23;;;;;;;15.90;60.36;100612.06;4983663;28;20216;-71
2022/06/07 00:04:06;;;;;;;1.17;0.40;;;;;;;15.86;60.37;100613.31;4981877;28;20228;-71
2022/06/07 00:06:33;;;;;;;0.63;0.40;;;;;;;15.81;60.71;100614.66;4988036;28;20207;-71
2022/06/07 00:08:59;;;;;;;0.97;0.40;;;;;;;15.75;60.92;100610.69;5000159;28;20567;-71
2022/06/07 00:11:26;;;;;;;0.70;0.40;;;;;;;15.71;60.96;100613.75;4991696;28;20211;-71
2022/06/07 00:13:54;;;;;;;0.77;0.60;;;;;;;15.63;61.00;100607.19;4987580;28;20700;-70
2022/06/07 00:16:20;;;;;;;0.43;0.43;;;;;;;15.57;61.35;100606.91;4991191;28;20210;-71
2022/06/07 00:18:47;;;;;;;0.47;0.47;;;;;;;15.52;61.31;100592.97;4994190;28;20653;-71
2022/06/07 00:21:13;;;;;;;0.30;0.30;;;;;;;15.46;61.14;100594.31;4997047;28;20216;-71
2022/06/07 00:23:40;;;;;;;0.57;0.43;;;;;;;15.43;61.11;100593.72;4987889;28;20239;-70
2022/06/07 00:26:06;;;;;;;1.33;0.50;;;;;;;15.38;61.07;100591.47;4987758;28;20211;-71
2022/06/07 00:28:33;;;;;;;0.73;0.50;;;;;;;15.34;61.15;100584.63;4978953;28;20689;-71
2022/06/07 00:31:01;;;;;;;0.30;0.30;;;;;;;15.32;61.94;100583.06;4984577;28;20215;-70
2022/06/07 00:33:28;;;;;;;1.07;0.50;;;;;;;15.28;62.00;100582.47;4987789;28;20343;-71
2022/06/07 00:35:55;;;;;;;0.50;0.50;;;;;;;15.25;62.37;100586.25;4988388;28;20278;-71
2022/06/07 00:38:21;;;;;;;0.67;0.50;;;;;;;15.22;62.37;100586.53;4987861;28;20590;-71
2022/06/07 00:40:48;;;;;;;0.43;0.43;;;;;;;15.19;63.03;100585.94;4986220;28;20203;-71
2022/06/07 00:43:14;;;;;;;1.13;0.40;;;;;;;15.16;62.74;100575.44;4996743;28;20588;-70
2022/06/07 00:45:41;;;;;;;0.77;0.50;;;;;;;15.13;63.10;100589.13;4991418;28;20227;-72
2022/06/07 00:48:10;;;;;;;1.33;0.50;;;;;;;15.11;62.58;100583.03;4990028;28;20216;-71
2022/06/07 00:50:43;;;;;;;1.13;0.43;;;;;;;15.07;62.87;100579.72;4987374;28;20211;-71
2022/06/07 00:53:21;;;;;;;0.93;0.50;;;;;;;15.03;62.64;100574.78;4987128;28;20207;-71
2022/06/07 00:55:47;;;;;;;0.70;0.50;;;;;;;14.98;62.87;100572.47;4988251;28;20238;-71
2022/06/07 00:58:14;;;;;;;0.60;0.40;;;;;;;14.94;62.99;100574.53;4984062;28;20203;-71
2022/06/07 01:00:42;;;;;;;0.50;0.50;;;;;;;14.90;63.06;100569.56;4990485;28;20330;-70
2022/06/07 01:03:10;;;;;;;2.00;0.87;;;;;;;14.87;62.73;100570.66;4986737;28;20211;-72
2022/06/07 01:05:36;;;;;;;0.97;0.60;;;;;;;14.85;62.88;100572.63;4990999;28;20224;-72
2022/06/07 01:10:49;;;;;;;1.53;0.70;;;;;;;14.81;63.33;100579.22;4988166;28;20213;-71
2022/06/07 01:13:20;;;;;;;2.50;0.67;;;;;;;14.80;63.04;100574.00;4986273;28;20210;-70
2022/06/07 01:15:47;;;;;;;1.10;0.70;;;;;;;14.77;62.95;100563.50;4982961;28;20689;-69
2022/06/07 01:18:16;;;;;;;2.83;0.70;;;;;;;14.76;63.51;100569.84;4987325;28;20199;-70
2022/06/07 01:20:43;;;;;;;0.80;0.60;;;;;;;14.73;63.58;100564.72;4980033;28;20203;-71
2022/06/07 01:23:11;;;;;;;0.60;0.60;;;;;;;14.71;63.42;100567.53;4995357;28;20211;-71
2022/06/07 01:25:38;;;;;;;1.33;0.80;;;;;;;14.68;63.57;100567.81;4990256;28;20235;-71
2022/06/07 01:28:05;;;;;;;1.13;0.70;;;;;;;14.66;63.93;100564.41;4984469;28;20586;-71
2022/06/07 01:30:32;;;;;;;1.57;0.60;;;;;;;14.65;63.99;100567.22;4985628;28;20211;-70
2022/06/07 01:32:58;;;;;;;3.47;0.70;;;;;;;14.62;63.82;100562.94;4984137;28;20210;-72
2022/06/07 01:35:24;;;;;;;1.60;1.00;;;;;;;14.61;63.95;100563.06;4983738;28;20253;-71
2022/06/07 01:37:51;;;;;;;1.37;0.87;;;;;;;14.59;63.82;100565.88;4981328;28;20212;-70
2022/06/07 01:43:03;;;;;;;1.17;0.73;;;;;;;14.57;64.42;100557.94;4982324;28;20617;-70
2022/06/07 01:45:30;;;;;;;3.03;0.90;;;;;;;14.55;64.38;100556.38;4980554;28;20222;-71
2022/06/07 01:47:56;;;;;;;2.87;0.80;;;;;;;14.54;64.51;100558.19;4976364;28;20620;-71
2022/06/07 01:50:23;;;;;;;1.47;0.60;;;;;;;14.51;64.60;100558.44;4980389;28;20224;-71
2022/06/07 01:52:49;;;;;;;0.97;0.60;;;;;;;14.51;64.19;100561.13;4981426;28;20204;-71
2022/06/07 01:55:16;;;;;;;0.97;0.57;;;;;;;14.50;64.60;100556.75;5000703;23;20265;-68
2022/06/07 01:57:45;;;;;;;0.63;0.63;;;;;;;14.48;64.32;100553.34;5006141;28;20218;-68
2022/06/07 02:00:13;;;;;;;0.73;0.67;;;;;;;14.47;64.68;100558.84;5002866;28;20245;-68
2022/06/07 02:02:39;;;;;;;1.03;0.80;;;;;;;14.46;64.69;100551.78;5003622;28;20200;-67
2022/06/07 02:05:06;;;;;;;1.00;0.77;;;;;;;14.45;64.57;100548.22;5001560;28;20223;-67
2022/06/07 02:07:33;;;;;;;1.70;1.03;;;;;;;14.43;64.88;100539.47;5006424;28;20210;-68
2022/06/07 02:09:59;;;;;;;0.97;0.80;;;;;;;14.43;65.34;100549.31;5005884;28;20581;-68
2022/06/07 02:12:26;;;;;;;0.87;0.87;;;;;;;14.41;65.26;100557.50;5007443;28;20203;-67
2022/06/07 02:14:54;;;;;;;1.40;0.83;;;;;;;14.40;65.43;100560.25;5005922;28;20715;-68
2022/06/07 02:17:20;;;;;;;3.13;1.07;;;;;;;14.39;65.52;100558.56;5006544;28;20587;-68
2022/06/07 02:19:47;;;;;;;1.53;0.87;;;;;;;14.38;65.89;100551.50;5005100;28;20202;-67
2022/06/07 02:22:13;;;;;;;2.57;0.90;;;;;;;14.37;66.31;100555.13;5006272;28;20211;-68
2022/06/07 02:24:40;;;;;;;1.90;1.00;;;;;;;14.36;66.20;100554.28;5006480;28;20219;-68
2022/06/07 02:27:09;;;;;;;1.20;1.10;;;;;;;14.35;66.66;100547.22;5007154;28;20210;-68
2022/06/07 02:29:39;;;;;;;4.63;1.80;;;;;;;14.33;66.90;100551.84;5005820;28;20207;-68
2022/06/07 02:32:14;;;;;;;1.30;1.00;;;;;;;14.34;66.94;100548.19;5006205;28;20225;-68
2022/06/07 02:34:42;;;;;;;1.00;0.90;;;;;;;14.34;66.99;100548.19;5006216;28;20253;-68
2022/06/07 02:37:11;;;;;;;1.37;0.90;;;;;;;14.34;67.10;100547.34;5004451;28;20207;-68
2022/06/07 02:39:38;;;;;;;1.10;1.00;;;;;;;14.32;67.04;100543.97;5006193;28;20621;-68
2022/06/07 02:42:06;;;;;;;2.90;1.27;;;;;;;14.30;67.26;100544.09;5005730;28;20211;-68
2022/06/07 02:44:33;;;;;;;2.53;1.10;;;;;;;14.30;67.80;100536.06;5005599;28;20655;-67
2022/06/07 02:47:00;;;;;;;1.67;1.20;;;;;;;14.30;67.64;100529.84;5010107;28;20199;-67
2022/06/07 02:49:27;;;;;;;2.17;1.33;;;;;;;14.30;67.50;100540.56;5010786;28;20226;-67
2022/06/07 02:51:54;;;;;;;2.03;1.50;;;;;;;14.29;67.89;100542.38;5009495;28;20207;-67
2022/06/07 02:54:20;;;;;;;1.60;1.50;;;;;;;14.29;67.93;100537.03;5011153;28;20611;-68
2022/06/07 02:56:47;;;;;;;1.87;1.40;;;;;;;14.29;67.78;100534.34;5004771;28;20202;-68
2022/06/07 02:59:13;;;;;;;1.90;1.40;;;;;;;14.29;67.83;100536.16;5010478;28;20581;-67
2022/06/07 03:01:40;;;;;;;1.63;1.47;;;;;;;14.27;67.85;100528.25;5009674;28;20218;-68
2022/06/07 03:04:06;;;;;;;2.20;1.47;;;;;;;14.26;67.63;100523.88;5010712;28;20207;-67
2022/06/07 03:06:34;;;;;;;3.90;1.80;;;;;;;14.25;67.87;100517.66;5010723;28;20694;-67
2022/06/07 03:09:01;;;;;;;3.80;1.77;;;;;;;14.25;68.19;100522.16;5007992;28;20210;-67
2022/06/07 03:11:27;;;;;;;2.57;2.13;;;;;;;14.26;68.22;100515.84;5009612;28;20203;-68
2022/06/07 03:13:54;;;;;;;2.80;2.40;;;;;;;14.28;68.45;100521.91;5006371;28;20217;-66
2022/06/07 03:16:20;;;;;;;3.63;2.70;;;;;;;14.31;68.26;100528.88;4999732;28;20227;-67
2022/06/07 03:18:47;;;;;;;2.50;2.30;;;;;;;14.33;68.05;100529.59;5004979;28;20683;-68
2022/06/07 03:21:13;;;;;;;2.33;2.10;;;;;;;14.34;67.86;100524.09;5009611;28;20708;-68
2022/06/07 03:23:41;;;;;;;2.80;1.90;;;;;;;14.36;67.81;100524.81;5006645;28;20571;-67
2022/06/07 03:26:10;;;;;;;3.93;2.10;;;;;;;14.38;67.75;100524.69;5006349;28;20229;-68
2022/06/07 03:28:37;;;;;;;2.77;1.70;;;;;;;14.39;67.51;100521.03;5009909;28;20211;-67
2022/06/07 03:31:06;;;;;;;4.17;2.13;;;;;;;14.40;67.39;100518.28;5008807;28;20231;-68
2022/06/07 03:33:34;;;;;;;2.27;1.60;;;;;;;14.40;67.34;100518.28;5003685;28;20203;-68
2022/06/07 03:36:07;;;;;;;2.23;2.00;;;;;;;14.42;67.80;100510.97;5009360;28;20223;-67
2022/06/07 03:38:34;;;;;;;1.80;1.57;;;;;;;14.43;67.89;100514.50;5007579;28;20210;-67
2022/06/07 03:41:02;;;;;;;3.57;2.20;;;;;;;14.45;67.85;100517.91;5002969;28;20673;-68
2022/06/07 03:43:29;;;;;;;1.60;1.50;;;;;;;14.45;67.89;100509.88;5002389;28;20203;-67
2022/06/07 03:45:55;;;;;;;2.40;1.40;;;;;;;14.45;68.14;100505.38;5001416;28;20223;-67
2022/06/07 03:48:22;;;;;;;1.67;1.23;;;;;;;14.45;68.17;100505.38;5005833;28;20207;-68
2022/06/07 03:50:50;;;;;;;1.83;1.27;;;;;;;14.45;68.48;100501.81;5003777;28;20204;-67
2022/06/07 03:53:16;;;;;;;5.07;1.83;;;;;;;14.43;68.37;100504.63;5009688;28;20820;-67
2022/06/07 03:55:44;;;;;;;1.30;1.20;;;;;;;14.41;68.67;100503.91;5004842;28;20233;-68
2022/06/07 03:58:12;;;;;;;2.03;1.27;;;;;;;14.39;68.73;100500.47;5002246;28;20770;-67
2022/06/07 04:00:39;;;;;;;1.50;1.20;;;;;;;14.37;68.66;100505.09;5001579;28;20215;-67
2022/06/07 04:03:05;;;;;;;2.83;1.60;;;;;;;14.35;68.92;100498.16;5008457;28;20211;-68
2022/06/07 04:05:32;;;;;;;2.67;1.37;;;;;;;14.31;69.33;100500.25;5007409;28;20226;-68
2022/06/07 04:08:13;;;;;;;2.43;1.50;;;;;;;14.28;69.43;100497.81;5005334;28;20384;-67
2022/06/07 04:10:48;;;;;;;1.87;1.30;;;;;;;14.24;69.52;100496.34;5005240;28;20203;-68
2022/06/07 04:13:16;;;;;;;1.50;1.40;;;;;;;14.21;69.85;100491.25;5004289;28;20662;-68
2022/06/07 04:15:43;;;;;;;3.17;1.43;;;;;;;14.18;69.85;100497.69;4993693;28;20251;-68
2022/06/07 04:18:10;;;;;;;3.67;2.07;;;;;;;14.16;69.83;100507.66;5002596;28;20217;-67
2022/06/07 04:20:40;;;;;;;1.73;1.50;;;;;;;14.13;70.58;100499.91;5004317;28;20213;-68
2022/06/07 04:23:08;;;;;;;1.57;1.30;;;;;;;14.10;70.21;100505.50;5005332;28;20211;-69
2022/06/07 04:25:36;;;;;;;1.87;1.50;;;;;;;14.08;70.83;100502.09;5002770;28;20253;-67
2022/06/07 04:28:02;;;;;;;2.37;1.30;;;;;;;14.08;70.50;100503.91;5006643;28;20211;-68
2022/06/07 04:30:31;;;;;;;2.30;1.40;;;;;;;14.06;70.73;100504.03;5003082;28;20206;-67
2022/06/07 04:32:58;;;;;;;1.73;1.30;;;;;;;14.06;71.04;100493.34;5009399;28;20727;-68
2022/06/07 04:35:25;;;;;;;2.70;1.40;;;;;;;14.08;70.96;100491.38;5006457;28;20242;-68
2022/06/07 04:37:52;;;;;;;1.87;1.27;;;;;;;14.11;71.42;100490.28;5006464;28;20824;-68
2022/06/07 04:40:19;;;;;;;2.37;1.30;;;;;;;14.14;71.04;100484.69;5002066;28;20254;-68
2022/06/07 04:42:45;;;;;;;2.43;1.50;;;;;;;14.18;71.26;100486.13;5008317;28;20219;-68
2022/06/07 04:45:15;;;;;;;1.97;1.40;;;;;;;14.24;71.88;100493.69;4995251;28;20237;-68
2022/06/07 04:47:44;;;;;;;3.00;1.43;;;;;;;14.29;71.47;100490.63;4998360;28;20231;-68
2022/06/07 04:50:13;;;;;;;2.43;1.50;;;;;;;14.38;71.58;100488.03;5009616;28;20207;-68
2022/06/07 04:52:40;;;;;;;4.30;1.50;;;;;;;14.46;71.50;100496.34;5006690;28;20653;-67
2022/06/07 04:55:07;;;;;;;3.27;1.87;;;;;;;14.52;71.30;100492.28;4999694;28;20827;-68
2022/06/07 04:57:33;;;;;;;3.53;1.47;;;;;;;14.59;71.28;100485.47;5004502;28;20770;-68
2022/06/07 05:00:00;;;;;;;2.30;1.40;;;;;;;14.64;70.98;100491.31;5007889;28;20203;-68
2022/06/07 05:02:26;;;;;;;2.00;1.47;;;;;;;14.72;70.96;100482.59;5004084;28;20210;-68
2022/06/07 05:04:54;;;;;;;2.73;1.57;;;;;;;14.78;70.59;100485.63;5004435;28;20313;-68
2022/06/07 05:07:21;;;;;;;3.07;1.50;;;;;;;14.84;70.15;100492.31;5005866;28;20596;-68
2022/06/07 05:09:48;;;;;;;2.37;1.53;;;;;;;14.91;70.42;100493.50;5006222;28;20203;-67
2022/06/07 05:12:15;;;;;;;3.17;1.63;;;;;;;14.99;70.19;100490.19;5009600;28;20199;-68
2022/06/07 05:14:43;;;;;;;3.07;1.80;;;;;;;15.07;70.05;100493.91;5005920;28;21077;-68
2022/06/07 05:17:10;;;;;;;4.07;1.80;;;;;;;15.16;69.59;100489.59;5006756;28;20321;-68
2022/06/07 05:19:36;;;;;;;1.63;1.53;;;;;;;15.24;69.50;100497.84;5007804;28;20209;-68
2022/06/07 05:22:05;;;;;;;2.40;1.60;;;;;;;15.33;69.02;100497.06;5007621;28;20668;-68
2022/06/07 05:24:31;;;;;;;2.50;1.70;;;;;;;15.42;68.71;100493.59;5003098;28;20223;-68
2022/06/07 05:27:01;;;;;;;4.63;1.60;;;;;;;15.51;68.07;100489.28;5003240;28;20226;-68
2022/06/07 05:29:33;;;;;;;2.53;1.40;;;;;;;15.60;67.39;100485.81;5002261;28;20663;-68
2022/06/07 05:31:59;;;;;;;2.37;1.60;;;;;;;15.69;66.95;100486.84;5001479;28;20206;-67
2022/06/07 05:34:26;;;;;;;3.20;1.50;;;;;;;15.78;66.75;100492.25;5006021;28;20220;-68
2022/06/07 05:36:53;;;;;;;1.77;1.30;;;;;;;15.87;66.58;100478.03;5007768;28;20227;-67
2022/06/07 05:39:23;;;;;;;3.03;1.33;;;;;;;16.00;65.85;100480.47;5002858;28;20204;-68
2022/06/07 05:41:50;;;;;;;1.90;1.40;;;;;;;16.13;65.23;100485.59;5002201;28;20281;-68
2022/06/07 05:44:16;;;;;;;1.63;1.20;;;;;;;16.26;64.98;100473.66;4993406;28;20203;-68
2022/06/07 05:46:43;;;;;;;3.53;1.20;;;;;;;16.43;64.49;100482.03;5004459;28;20207;-68
2022/06/07 05:49:10;;;;;;;1.73;1.13;;;;;;;16.57;63.78;100481.63;5007480;28;20232;-68
2022/06/07 05:51:38;;;;;;;1.50;1.17;;;;;;;16.73;63.85;100478.41;5004947;28;20209;-68
2022/06/07 05:54:05;;;;;;;1.37;1.20;;;;;;;16.87;62.87;100469.91;5008175;28;20251;-68
2022/06/07 05:56:33;;;;;;;2.47;1.30;;;;;;;17.01;62.07;100477.56;5006481;28;20233;-68
2022/06/07 05:59:00;;;;;;;2.93;1.50;;;;;;;17.15;61.86;100474.44;5007647;28;20663;-68
2022/06/07 06:01:27;;;;;;;1.40;1.20;;;;;;;17.30;61.93;100483.75;5005076;28;20667;-68
2022/06/07 06:03:55;;;;;;;2.57;1.13;;;;;;;17.47;60.59;100484.00;5000618;28;20201;-68
2022/06/07 06:06:21;;;;;;;3.90;1.50;;;;;;;17.61;60.46;100484.38;4999394;28;20233;-68
2022/06/07 06:11:33;;;;;;;3.17;1.67;;;;;;;17.93;59.18;100484.03;5001837;28;20223;-67
2022/06/07 06:14:00;;;;;;;2.20;1.27;;;;;;;18.04;58.06;100483.00;4998850;28;20208;-68
2022/06/07 06:16:26;;;;;;;2.23;1.23;;;;;;;18.16;57.73;100475.56;5004430;28;20231;-68
2022/06/07 06:18:55;;;;;;;2.40;1.30;;;;;;;18.25;57.66;100477.38;4993210;28;20230;-67
2022/06/07 06:21:25;;;;;;;6.20;1.67;;;;;;;18.36;57.33;100471.75;5010457;28;20213;-68
2022/06/07 06:23:52;;;;;;;5.03;1.57;;;;;;;18.45;56.91;100470.81;5012386;28;20213;-68
2022/06/07 06:26:20;;;;;;;2.80;1.30;;;;;;;18.58;56.58;100468.63;5011228;28;20227;-68
2022/06/07 06:28:49;;;;;;;4.07;1.30;;;;;;;18.69;56.89;100468.41;5008748;28;20674;-68
2022/06/07 06:31:16;;;;;;;2.97;1.50;;;;;;;18.82;55.38;100472.56;5012216;28;20199;-67
2022/06/07 06:33:45;;;;;;;1.80;1.10;;;;;;;18.93;54.91;100475.06;5008300;28;20200;-68
2022/06/07 06:36:14;;;;;;;1.57;1.40;;;;;;;19.06;54.70;100470.09;5007988;28;20236;-67
2022/06/07 06:38:43;;;;;;;1.93;1.27;;;;;;;19.16;54.18;100476.28;5004653;28;20205;-68
2022/06/07 06:41:11;;;;;;;2.67;1.47;;;;;;;19.29;53.53;100476.72;5008317;28;20666;-68
2022/06/07 06:43:38;;;;;;;2.13;1.30;;;;;;;19.40;53.09;100467.50;5010209;28;20216;-68
2022/06/07 06:46:06;;;;;;;5.17;1.50;;;;;;;19.47;51.90;100468.56;5010597;28;20613;-67
2022/06/07 06:48:33;;;;;;;1.60;1.03;;;;;;;19.54;52.42;100472.34;5004923;28;20220;-68
2022/06/07 06:51:00;;;;;;;2.73;1.13;;;;;;;19.62;52.15;100472.41;5004490;28;20221;-68
2022/06/07 06:53:27;;;;;;;3.63;1.07;;;;;;;19.73;51.11;100472.13;5011098;28;20240;-68
2022/06/07 06:55:55;;;;;;;2.03;1.07;;;;;;;19.82;50.87;100473.03;5010286;28;20242;-67
2022/06/07 06:58:24;;;;;;;2.80;1.00;;;;;;;19.92;50.14;100479.16;5008338;28;20634;-68
2022/06/07 07:00:59;;;;;;;2.10;1.00;;;;;;;19.95;48.57;100476.13;5010981;28;20215;-68
2022/06/07 07:03:27;;;;;;;3.07;1.27;;;;;;;19.98;47.97;100483.91;5007369;28;20209;-68
2022/06/07 07:05:55;;;;;;;3.00;1.00;;;;;;;20.02;47.39;100482.59;5010724;28;20661;-67
2022/06/07 07:08:23;;;;;;;1.90;0.93;;;;;;;20.10;47.08;100477.22;5011480;28;20209;-67
2022/06/07 07:10:50;;;;;;;3.13;0.90;;;;;;;20.24;47.27;100480.31;5006438;28;20214;-68
2022/06/07 07:13:16;;;;;;;2.63;0.95;;;;;;;20.35;46.20;100480.00;5011208;28;20221;-68
2022/06/07 07:15:47;;;;;;;1.73;0.73;;;;;;;20.42;45.90;100486.50;5009071;28;20223;-67
2022/06/07 07:18:14;;;;;;;2.00;0.93;;;;;;;20.51;46.28;100488.19;5008164;28;20211;-67
2022/06/07 07:20:42;;;;;;;2.90;1.20;;;;;;;20.64;46.04;100487.72;5008694;28;20210;-67
2022/06/07 07:23:08;;;;;;;3.57;1.00;;;;;;;20.67;45.81;100504.47;5010968;28;20206;-67
2022/06/07 07:25:35;;;;;;;2.63;0.80;;;;;;;20.76;44.80;100495.38;5006700;28;20692;-67
2022/06/07 07:28:02;;;;;;;1.92;0.93;;;;;;;20.74;44.70;100485.72;5001591;28;20588;-67
2022/06/07 07:30:29;;;;;;;1.63;0.80;;;;;;;20.77;44.97;100482.69;5007977;28;20217;-67
2022/06/07 07:32:56;;;;;;;2.47;0.90;;;;;;;20.81;44.93;100481.31;5008294;28;20274;-67
2022/06/07 07:35:23;;;;;;;3.83;1.05;;;;;;;20.90;44.91;100484.91;5001541;28;20227;-67
2022/06/07 07:37:51;;;;;;;1.85;0.82;;;;;;;20.97;44.82;100480.47;5004112;28;20222;-67
2022/06/07 07:40:18;;;;;;;2.33;1.23;;;;;;;21.03;44.29;100487.94;5006315;28;20222;-67
2022/06/07 07:42:44;;;;;;;1.92;1.02;;;;;;;21.00;43.99;100481.00;5014686;28;20202;-67
2022/06/07 07:45:12;;;;;;;2.00;0.80;;;;;;;21.06;44.30;100485.75;5001905;28;20237;-67
2022/06/07 07:47:38;;;;;;;3.58;0.88;;;;;;;21.14;44.55;100484.88;5005108;28;20631;-67
2022/06/07 07:50:06;;;;;;;2.28;1.17;;;;;;;21.24;43.53;100476.63;5004025;28;20210;-67
2022/06/07 07:52:32;;;;;;;1.90;0.85;;;;;;;21.24;43.17;100473.94;5011093;28;20202;-67
2022/06/07 07:55:00;;;;;;;2.97;0.93;;;;;;;21.33;43.38;100472.91;5012086;23;20227;-84
2022/06/07 07:57:27;;;;;;;3.30;1.00;;;;;;;21.41;43.28;100478.31;5009615;28;20228;-83
2022/06/07 07:59:54;;;;;;;1.23;0.80;;;;;;;21.52;42.99;100469.81;4997397;28;20282;-83
2022/06/07 08:02:23;;;;;;;1.95;0.60;;;;;;;21.66;43.05;100476.44;4984237;28;20726;-83
2022/06/07 08:04:49;;;;;;;2.63;1.20;;;;;;;21.76;42.60;100474.34;4992608;28;20210;-84
2022/06/07 08:07:16;;;;;;;2.10;0.90;;;;;;;21.89;42.61;100471.94;4988260;28;20211;-83
2022/06/07 08:09:43;;;;;;;1.50;0.85;;;;;;;21.99;42.04;100461.75;4990621;28;20866;-83
2022/06/07 08:12:11;;;;;;;2.03;0.82;;;;;;;22.06;42.64;100473.59;4982622;28;20546;-83
2022/06/07 08:14:38;;;;;;;1.30;0.98;;;;;;;22.17;41.82;100467.81;4981728;28;20230;-84
2022/06/07 08:17:05;;;;;;;2.80;1.08;;;;;;;22.22;41.21;100475.38;4985862;28;20602;-85
2022/06/07 08:19:32;;;;;;;3.15;1.13;;;;;;;22.22;40.51;100475.38;4988981;28;20311;-85
2022/06/07 08:21:58;;;;;;;3.53;0.80;;;;;;;22.26;40.73;100463.16;4983737;28;20743;-85
2022/06/07 08:24:25;;;;;;;3.67;0.90;;;;;;;22.34;40.35;100465.84;4982391;28;20212;-85
2022/06/07 08:26:52;;;;;;;2.67;0.90;;;;;;;22.42;40.08;100463.09;4981689;28;20290;-83
2022/06/07 08:29:20;;;;;;;1.42;0.80;;;;;;;22.49;39.26;100465.94;4990957;28;20696;-83
2022/06/07 08:31:48;;;;;;;1.90;0.80;;;;;;;22.49;39.08;100458.66;4984522;28;20222;-83
2022/06/07 08:39:58;;;;;;;0.65;0.60;;;;;;;22.82;38.51;100447.59;4952389;28;20231;-84
2022/06/07 08:42:29;;;;;;;2.40;0.80;;;;;;;22.96;38.66;100449.50;4968273;28;20211;-84
2022/06/07 08:44:59;;;;;;;1.80;0.80;;;;;;;23.10;38.35;100453.31;4983879;28;20223;-84
2022/06/07 08:47:34;;;;;;;1.02;0.73;;;;;;;23.20;37.33;100457.47;4985099;28;20777;-82
2022/06/07 08:50:04;;;;;;;2.42;0.73;;;;;;;23.19;36.53;100453.06;4992013;28;20235;-85
2022/06/07 08:52:34;;;;;;;1.50;0.70;;;;;;;23.19;36.11;100453.06;4994268;28;20206;-83
2022/06/07 08:55:02;;;;;;;2.17;0.60;;;;;;;23.22;35.75;100453.72;4986499;28;20269;-84
2022/06/07 08:57:30;;;;;;;1.73;0.82;;;;;;;23.26;36.43;100455.06;4984928;28;20622;-84
2022/06/07 09:00:08;;;;;;;1.73;0.80;;;;;;;23.30;36.51;100435.44;4980345;28;20223;-84
2022/06/07 09:02:54;;;;;;;1.08;0.60;;;;;;;23.41;35.97;100439.63;4985227;28;20207;-84
2022/06/07 09:05:20;;;;;;;1.35;0.68;;;;;;;23.48;35.74;100432.38;4981047;28;20288;-84
2022/06/07 09:07:47;;;;;;;1.33;0.50;;;;;;;23.53;35.85;100440.88;4980143;28;20223;-84
2022/06/07 09:13:05;;;;;;;2.20;0.75;;;;;;;23.73;35.78;100433.84;4984957;28;20258;-83
2022/06/07 09:15:36;;;;;;;0.80;0.45;;;;;;;23.84;34.92;100432.53;4985524;28;20211;-84
2022/06/07 09:18:06;;;;;;;2.03;0.68;;;;;;;23.89;35.14;100420.06;4992060;28;20282;-85
2022/06/07 09:20:36;;;;;;;1.70;0.50;;;;;;;23.97;35.13;100421.84;4977553;28;20620;-84
2022/06/07 09:23:11;;;;;;;2.38;0.68;;;;;;;24.03;34.76;100420.22;4979345;28;20214;-83
2022/06/07 09:25:42;;;;;;;2.15;0.75;;;;;;;24.05;35.30;100423.59;4981259;28;20217;-85
2022/06/07 09:28:13;;;;;;;2.65;0.85;;;;;;;24.17;35.06;100422.94;4978819;28;20296;-85
2022/06/07 09:30:44;;;;;;;1.05;0.63;;;;;;;24.21;35.44;100402.44;4980658;28;20295;-84
2022/06/07 09:33:21;;;;;;;3.50;0.80;;;;;;;24.29;34.72;100426.03;4982110;28;20257;-84
2022/06/07 09:35:49;;;;;;;1.10;0.60;;;;;;;24.28;34.37;100415.34;4988011;28;20688;-83
2022/06/07 09:38:24;;;;;;;1.30;0.63;;;;;;;24.28;34.17;100412.63;4982266;28;20236;-84
2022/06/07 09:40:56;;;;;;;1.45;0.75;;;;;;;24.26;34.22;100404.63;4985263;28;20201;-83
2022/06/07 09:43:27;;;;;;;2.22;0.80;;;;;;;24.29;33.94;100411.59;4984719;28;20199;-84
2022/06/07 09:45:58;;;;;;;2.13;0.80;;;;;;;24.33;33.55;100410.16;4987466;28;20686;-84
2022/06/07 09:48:31;;;;;;;1.25;0.57;;;;;;;24.35;33.60;100424.44;4983934;28;20276;-85
2022/06/07 09:51:02;;;;;;;0.55;0.40;;;;;;;24.43;33.23;100410.69;4989449;28;20567;-83
2022/06/07 09:53:35;;;;;;;0.95;0.70;;;;;;;24.38;32.60;100407.69;4993939;28;20228;-83
2022/06/07 09:56:16;;;;;;;1.15;0.80;;;;;;;24.45;33.24;100405.91;4985530;28;20230;-84
2022/06/07 09:58:53;;;;;;;0.90;0.60;;;;;;;24.54;32.76;100402.84;4982153;28;20241;-84
2022/06/07 10:01:26;;;;;;;1.67;0.57;;;;;;;24.58;31.21;100411.47;4981181;28;20203;-85
2022/06/07 10:04:00;;;;;;;1.00;0.55;;;;;;;24.63;31.87;100408.19;4983049;28;20199;-85
2022/06/07 10:06:30;;;;;;;0.88;0.50;;;;;;;24.67;32.39;100407.59;4980765;28;20231;-84
2022/06/07 10:09:14;;;;;;;1.42;0.73;;;;;;;24.80;32.01;100407.72;4982490;28;20220;-83
2022/06/07 10:11:47;;;;;;;0.70;0.60;;;;;;;24.88;32.06;100404.03;4981538;28;20214;-84
2022/06/07 10:14:24;;;;;;;1.83;0.50;;;;;;;24.90;31.35;100413.66;4986734;28;20205;-83
2022/06/07 10:17:02;;;;;;;1.00;0.60;;;;;;;24.93;31.48;100404.28;4979615;28;20193;-84
2022/06/07 10:19:41;;;;;;;1.08;0.50;;;;;;;25.03;31.71;100402.09;4979856;28;20974;-84
2022/06/07 10:22:46;;;;;;;0.47;0.47;;;;;;;25.19;31.09;100406.41;4981828;28;20198;-85
2022/06/07 10:25:19;;;;;;;1.75;0.45;;;;;;;25.15;29.89;100413.28;4981740;28;20215;-84
2022/06/07 10:27:56;;;;;;;0.88;0.57;;;;;;;25.20;30.41;100414.41;4978464;28;20257;-83
2022/06/07 10:30:29;;;;;;;0.55;0.55;;;;;;;25.31;30.41;100410.28;4984514;28;20203;-84
2022/06/07 10:33:22;;;;;;;1.80;0.52;;;;;;;25.33;29.90;100410.91;4980426;28;20198;-84
2022/06/07 10:35:54;;;;;;;2.30;0.60;;;;;;;25.30;29.28;100402.28;4982011;28;20255;-83
2022/06/07 10:38:41;;;;;;;2.22;0.43;;;;;;;25.34;30.11;100392.69;4977722;28;20240;-83
2022/06/07 10:41:18;;;;;;;1.17;0.50;;;;;;;25.40;29.78;100403.66;4978152;28;20216;-82
2022/06/07 10:43:54;;;;;;;1.42;0.47;;;;;;;25.42;30.17;100398.00;4982298;28;20271;-84
2022/06/07 10:46:22;;;;;;;1.25;0.50;;;;;;;25.49;30.75;100401.59;4985532;28;20199;-83
2022/06/07 10:49:03;;;;;;;1.92;0.40;;;;;;;25.60;30.38;100401.88;4974889;28;20224;-85
2022/06/07 10:54:24;;;;;;;1.67;0.60;;;;;;;25.97;29.61;100401.69;4980609;28;20247;-83
2022/06/07 10:56:57;;;;;;;2.38;0.70;;;;;;;26.08;29.04;100399.22;4977826;28;20622;-84
2022/06/07 10:59:26;;;;;;;4.18;1.48;;;;;;;26.20;29.64;100397.56;4981018;28;20228;-85
2022/06/07 11:02:01;;;;;;;6.53;1.10;;;;;;;26.40;30.02;100402.28;4980935;28;20623;-82
2022/06/07 11:10:15;;;;;;;1.75;0.70;;;;;;;26.44;29.39;100411.75;4983509;28;20282;-84
2022/06/07 11:12:49;;;;;;;0.95;0.70;;;;;;;26.46;29.02;100406.94;4985222;28;20210;-83
2022/06/07 11:15:22;;;;;;;1.27;0.65;;;;;;;26.45;29.02;100399.78;4988201;28;20204;-84
2022/06/07 11:17:56;;;;;;;1.75;0.68;;;;;;;26.42;29.00;100392.00;4981002;28;20762;-83
2022/06/07 11:20:27;;;;;;;1.08;0.50;;;;;;;26.38;28.77;100393.44;4982463;28;20206;-85
2022/06/07 11:22:58;;;;;;;2.05;0.82;;;;;;;26.31;28.52;100395.34;4983139;28;20719;-83
2022/06/07 11:25:33;;;;;;;2.20;0.82;;;;;;;26.22;28.42;100387.28;4985109;28;20643;-85
2022/06/07 11:28:06;;;;;;;1.70;0.63;;;;;;;26.15;28.80;100388.34;4981374;28;20214;-85
2022/06/07 11:30:45;;;;;;;2.33;0.60;;;;;;;26.11;28.76;100390.63;4983075;28;20294;-84
2022/06/07 11:33:38;;;;;;;1.83;0.60;;;;;;;26.09;28.87;100384.53;4982121;28;20226;-84
2022/06/07 11:36:23;;;;;;;1.33;0.65;;;;;;;26.08;29.14;100376.53;4981811;28;20721;-84
2022/06/07 11:39:04;;;;;;;1.17;0.50;;;;;;;26.07;29.99;100372.13;4976205;28;20649;-85
2022/06/07 11:41:46;;;;;;;1.38;0.65;;;;;;;26.16;29.99;100369.00;4984295;28;20266;-84
2022/06/07 11:44:34;;;;;;;0.85;0.63;;;;;;;26.23;29.59;100372.59;4986474;28;20302;-84
2022/06/07 11:47:24;;;;;;;1.60;0.65;;;;;;;26.30;30.11;100372.66;4986079;28;20218;-85
2022/06/07 11:50:00;;;;;;;1.17;0.70;;;;;;;26.37;29.44;100375.38;4986852;28;20322;-84
2022/06/07 11:52:29;;;;;;;1.33;0.70;;;;;;;26.35;29.41;100363.81;4983697;28;20202;-84
2022/06/07 11:54:59;;;;;;;0.82;0.70;;;;;;;26.36;29.89;100374.53;4990875;28;20682;-85
2022/06/07 11:57:35;;;;;;;1.02;0.75;;;;;;;26.36;29.97;100377.28;4989900;28;20208;-83
2022/06/07 12:00:24;;;;;;;1.08;0.57;;;;;;;26.35;30.07;100369.28;4984238;28;20281;-84